sensor_id;sensor_type;location;lat;lon;timestamp;P1;durP1;ratioP1;P2;durP2;ratioP2
18322;SDS011;9287;49.456;11.064;2024-02-15T00:01:36;3.20;;;2.90;;
18322;SDS011;9287;49.456;11.064;2024-02-15T00:04:04;3.30;;;3.00;;
18322;SDS011;9287;49.456;11.064;2024-02-15T00:06:32;4.17;;;3.60;;
18322;SDS011;9287;49.456;11.064;2024-02-15T00:09:00;4.77;;;3.30;;
18322;SDS011;9287;49.456;11.064;2024-02-15T00:11:28;3.43;;;2.97;;
18322;SDS011;9287;49.456;11.064;2024-02-15T00:13:56;4.37;;;2.97;;
18322;SDS011;9287;49.456;11.064;2024-02-15T00:16:24;3.77;;;2.83;;
18322;SDS011;9287;49.456;11.064;2024-02-15T00:18:56;3.87;;;2.67;;
18322;SDS011;9287;49.456;11.064;2024-02-15T00:21:24;3.10;;;2.50;;
18322;SDS011;9287;49.456;11.064;2024-02-15T00:23:52;3.80;;;2.90;;
18322;SDS011;9287;49.456;11.064;2024-02-15T00:26:22;3.10;;;2.80;;
18322;SDS011;9287;49.456;11.064;2024-02-15T00:28:50;3.10;;;2.80;;
18322;SDS011;9287;49.456;11.064;2024-02-15T00:31:18;3.70;;;3.17;;
18322;SDS011;9287;49.456;11.064;2024-02-15T00:33:46;3.97;;;2.67;;
18322;SDS011;9287;49.456;11.064;2024-02-15T00:36:16;3.30;;;2.97;;
18322;SDS011;9287;49.456;11.064;2024-02-15T00:38:44;3.67;;;3.00;;
18322;SDS011;9287;49.456;11.064;2024-02-15T00:41:12;3.03;;;2.73;;
18322;SDS011;9287;49.456;11.064;2024-02-15T00:43:40;3.30;;;2.70;;
18322;SDS011;9287;49.456;11.064;2024-02-15T00:46:07;3.77;;;2.33;;
18322;SDS011;9287;49.456;11.064;2024-02-15T00:48:35;3.60;;;2.87;;
18322;SDS011;9287;49.456;11.064;2024-02-15T00:51:03;3.30;;;2.70;;
18322;SDS011;9287;49.456;11.064;2024-02-15T00:53:33;3.00;;;2.30;;
18322;SDS011;9287;49.456;11.064;2024-02-15T00:56:00;3.70;;;2.67;;
18322;SDS011;9287;49.456;11.064;2024-02-15T00:58:28;2.57;;;2.33;;
18322;SDS011;9287;49.456;11.064;2024-02-15T01:00:57;2.60;;;2.40;;
18322;SDS011;9287;49.456;11.064;2024-02-15T01:03:26;3.23;;;2.40;;
18322;SDS011;9287;49.456;11.064;2024-02-15T01:05:53;2.73;;;2.53;;
18322;SDS011;9287;49.456;11.064;2024-02-15T01:08:21;2.47;;;2.17;;
18322;SDS011;9287;49.456;11.064;2024-02-15T01:10:50;2.27;;;2.07;;
18322;SDS011;9287;49.456;11.064;2024-02-15T01:13:20;2.97;;;2.60;;
18322;SDS011;9287;49.456;11.064;2024-02-15T01:15:47;2.47;;;2.27;;
18322;SDS011;9287;49.456;11.064;2024-02-15T01:18:16;2.40;;;2.20;;
18322;SDS011;9287;49.456;11.064;2024-02-15T01:20:44;5.03;;;2.63;;
18322;SDS011;9287;49.456;11.064;2024-02-15T01:23:12;2.47;;;2.27;;
18322;SDS011;9287;49.456;11.064;2024-02-15T01:25:40;2.63;;;2.43;;
18322;SDS011;9287;49.456;11.064;2024-02-15T01:28:09;2.70;;;2.47;;
18322;SDS011;9287;49.456;11.064;2024-02-15T01:30:37;2.60;;;2.40;;
18322;SDS011;9287;49.456;11.064;2024-02-15T01:33:05;2.80;;;2.40;;
18322;SDS011;9287;49.456;11.064;2024-02-15T01:35:33;3.90;;;2.77;;
18322;SDS011;9287;49.456;11.064;2024-02-15T01:38:01;2.53;;;2.33;;
18322;SDS011;9287;49.456;11.064;2024-02-15T01:40:28;5.17;;;2.47;;
18322;SDS011;9287;49.456;11.064;2024-02-15T01:42:56;3.47;;;3.10;;
18322;SDS011;9287;49.456;11.064;2024-02-15T01:45:26;4.57;;;3.13;;
18322;SDS011;9287;49.456;11.064;2024-02-15T01:47:54;3.40;;;2.63;;
18322;SDS011;9287;49.456;11.064;2024-02-15T01:50:22;2.33;;;2.20;;
18322;SDS011;9287;49.456;11.064;2024-02-15T01:52:52;3.93;;;2.47;;
18322;SDS011;9287;49.456;11.064;2024-02-15T01:55:23;3.03;;;2.83;;
18322;SDS011;9287;49.456;11.064;2024-02-15T01:57:51;2.63;;;2.30;;
18322;SDS011;9287;49.456;11.064;2024-02-15T02:00:19;3.00;;;2.47;;
18322;SDS011;9287;49.456;11.064;2024-02-15T02:02:48;2.63;;;2.43;;
18322;SDS011;9287;49.456;11.064;2024-02-15T02:05:16;4.47;;;3.27;;
18322;SDS011;9287;49.456;11.064;2024-02-15T02:07:44;3.23;;;3.00;;
18322;SDS011;9287;49.456;11.064;2024-02-15T02:10:12;3.20;;;2.97;;
18322;SDS011;9287;49.456;11.064;2024-02-15T02:12:40;3.77;;;3.37;;
18322;SDS011;9287;49.456;11.064;2024-02-15T02:15:08;5.50;;;4.33;;
18322;SDS011;9287;49.456;11.064;2024-02-15T02:17:37;4.67;;;3.90;;
18322;SDS011;9287;49.456;11.064;2024-02-15T02:20:08;4.67;;;3.87;;
18322;SDS011;9287;49.456;11.064;2024-02-15T02:22:40;4.33;;;3.90;;
18322;SDS011;9287;49.456;11.064;2024-02-15T02:25:13;4.40;;;4.10;;
18322;SDS011;9287;49.456;11.064;2024-02-15T02:27:41;6.33;;;4.17;;
18322;SDS011;9287;49.456;11.064;2024-02-15T02:30:12;5.60;;;4.97;;
18322;SDS011;9287;49.456;11.064;2024-02-15T02:32:44;6.80;;;4.13;;
18322;SDS011;9287;49.456;11.064;2024-02-15T02:35:12;4.77;;;3.97;;
18322;SDS011;9287;49.456;11.064;2024-02-15T02:37:42;4.43;;;3.80;;
18322;SDS011;9287;49.456;11.064;2024-02-15T02:40:10;6.57;;;4.93;;
18322;SDS011;9287;49.456;11.064;2024-02-15T02:42:50;6.03;;;4.87;;
18322;SDS011;9287;49.456;11.064;2024-02-15T02:45:19;4.53;;;4.13;;
18322;SDS011;9287;49.456;11.064;2024-02-15T02:47:50;8.50;;;4.20;;
18322;SDS011;9287;49.456;11.064;2024-02-15T02:50:20;5.43;;;4.70;;
18322;SDS011;9287;49.456;11.064;2024-02-15T02:52:49;6.57;;;4.77;;
18322;SDS011;9287;49.456;11.064;2024-02-15T02:55:17;4.70;;;4.27;;
18322;SDS011;9287;49.456;11.064;2024-02-15T02:57:44;5.23;;;3.90;;
18322;SDS011;9287;49.456;11.064;2024-02-15T03:00:14;6.50;;;4.93;;
18322;SDS011;9287;49.456;11.064;2024-02-15T03:02:43;5.37;;;4.53;;
18322;SDS011;9287;49.456;11.064;2024-02-15T03:05:13;5.80;;;4.10;;
18322;SDS011;9287;49.456;11.064;2024-02-15T03:07:41;5.87;;;4.60;;
18322;SDS011;9287;49.456;11.064;2024-02-15T03:10:09;5.80;;;4.53;;
18322;SDS011;9287;49.456;11.064;2024-02-15T03:12:40;4.87;;;4.10;;
18322;SDS011;9287;49.456;11.064;2024-02-15T03:15:16;5.57;;;4.13;;
18322;SDS011;9287;49.456;11.064;2024-02-15T03:17:45;4.70;;;4.10;;
18322;SDS011;9287;49.456;11.064;2024-02-15T03:20:15;7.13;;;4.23;;
18322;SDS011;9287;49.456;11.064;2024-02-15T03:22:50;4.57;;;4.10;;
18322;SDS011;9287;49.456;11.064;2024-02-15T03:25:19;4.03;;;3.40;;
18322;SDS011;9287;49.456;11.064;2024-02-15T03:27:50;6.77;;;4.10;;
18322;SDS011;9287;49.456;11.064;2024-02-15T03:30:20;4.30;;;3.07;;
18322;SDS011;9287;49.456;11.064;2024-02-15T03:32:50;3.37;;;3.07;;
18322;SDS011;9287;49.456;11.064;2024-02-15T03:35:19;4.33;;;3.63;;
18322;SDS011;9287;49.456;11.064;2024-02-15T03:37:48;3.73;;;3.37;;
18322;SDS011;9287;49.456;11.064;2024-02-15T03:40:17;3.73;;;3.17;;
18322;SDS011;9287;49.456;11.064;2024-02-15T03:42:45;5.00;;;3.50;;
18322;SDS011;9287;49.456;11.064;2024-02-15T03:45:14;4.63;;;3.77;;
18322;SDS011;9287;49.456;11.064;2024-02-15T03:47:43;4.40;;;3.13;;
18322;SDS011;9287;49.456;11.064;2024-02-15T03:50:12;3.63;;;3.30;;
18322;SDS011;9287;49.456;11.064;2024-02-15T03:52:41;4.47;;;2.87;;
18322;SDS011;9287;49.456;11.064;2024-02-15T03:55:11;3.40;;;2.83;;
18322;SDS011;9287;49.456;11.064;2024-02-15T03:57:39;3.07;;;2.87;;
18322;SDS011;9287;49.456;11.064;2024-02-15T04:00:10;4.00;;;2.57;;
18322;SDS011;9287;49.456;11.064;2024-02-15T04:02:43;4.17;;;2.77;;
18322;SDS011;9287;49.456;11.064;2024-02-15T04:05:11;3.40;;;2.87;;
18322;SDS011;9287;49.456;11.064;2024-02-15T04:07:39;2.87;;;2.67;;
18322;SDS011;9287;49.456;11.064;2024-02-15T04:10:07;4.10;;;2.90;;
18322;SDS011;9287;49.456;11.064;2024-02-15T04:12:35;3.20;;;2.90;;
18322;SDS011;9287;49.456;11.064;2024-02-15T04:15:04;4.40;;;2.90;;
18322;SDS011;9287;49.456;11.064;2024-02-15T04:17:39;3.87;;;2.80;;
18322;SDS011;9287;49.456;11.064;2024-02-15T04:20:10;5.20;;;2.77;;
18322;SDS011;9287;49.456;11.064;2024-02-15T04:22:41;3.20;;;2.60;;
18322;SDS011;9287;49.456;11.064;2024-02-15T04:25:10;4.57;;;2.60;;
18322;SDS011;9287;49.456;11.064;2024-02-15T04:27:43;4.00;;;2.90;;
18322;SDS011;9287;49.456;11.064;2024-02-15T04:30:12;3.30;;;3.00;;
18322;SDS011;9287;49.456;11.064;2024-02-15T04:32:42;4.23;;;3.17;;
18322;SDS011;9287;49.456;11.064;2024-02-15T04:35:11;4.53;;;3.20;;
18322;SDS011;9287;49.456;11.064;2024-02-15T04:37:40;2.90;;;2.70;;
18322;SDS011;9287;49.456;11.064;2024-02-15T04:40:08;3.20;;;2.60;;
18322;SDS011;9287;49.456;11.064;2024-02-15T04:42:37;3.30;;;2.40;;
18322;SDS011;9287;49.456;11.064;2024-02-15T04:45:08;3.37;;;2.60;;
18322;SDS011;9287;49.456;11.064;2024-02-15T04:47:40;3.93;;;2.50;;
18322;SDS011;9287;49.456;11.064;2024-02-15T04:50:08;2.87;;;2.67;;
18322;SDS011;9287;49.456;11.064;2024-02-15T04:52:37;3.57;;;3.23;;
18322;SDS011;9287;49.456;11.064;2024-02-15T04:55:05;3.23;;;2.93;;
18322;SDS011;9287;49.456;11.064;2024-02-15T04:57:33;2.87;;;2.67;;
18322;SDS011;9287;49.456;11.064;2024-02-15T05:00:03;3.07;;;2.67;;
18322;SDS011;9287;49.456;11.064;2024-02-15T05:02:38;4.40;;;3.10;;
18322;SDS011;9287;49.456;11.064;2024-02-15T05:05:08;4.13;;;2.70;;
18322;SDS011;9287;49.456;11.064;2024-02-15T05:07:38;5.27;;;3.10;;
18322;SDS011;9287;49.456;11.064;2024-02-15T05:10:07;3.90;;;3.17;;
18322;SDS011;9287;49.456;11.064;2024-02-15T05:12:36;3.33;;;3.03;;
18322;SDS011;9287;49.456;11.064;2024-02-15T05:15:06;3.27;;;2.97;;
18322;SDS011;9287;49.456;11.064;2024-02-15T05:17:38;2.83;;;2.63;;
18322;SDS011;9287;49.456;11.064;2024-02-15T05:20:09;3.33;;;2.70;;
18322;SDS011;9287;49.456;11.064;2024-02-15T05:22:42;4.13;;;3.40;;
18322;SDS011;9287;49.456;11.064;2024-02-15T05:25:16;4.30;;;3.20;;
18322;SDS011;9287;49.456;11.064;2024-02-15T05:27:50;4.77;;;3.30;;
18322;SDS011;9287;49.456;11.064;2024-02-15T05:30:20;5.60;;;3.20;;
18322;SDS011;9287;49.456;11.064;2024-02-15T05:32:48;8.93;;;3.90;;
18322;SDS011;9287;49.456;11.064;2024-02-15T05:35:16;5.83;;;3.40;;
18322;SDS011;9287;49.456;11.064;2024-02-15T05:37:46;6.53;;;3.50;;
18322;SDS011;9287;49.456;11.064;2024-02-15T05:40:14;4.07;;;3.50;;
18322;SDS011;9287;49.456;11.064;2024-02-15T05:42:42;4.23;;;3.43;;
18322;SDS011;9287;49.456;11.064;2024-02-15T05:45:29;7.90;;;3.83;;
18322;SDS011;9287;49.456;11.064;2024-02-15T05:47:59;4.03;;;3.50;;
18322;SDS011;9287;49.456;11.064;2024-02-15T05:50:28;4.60;;;4.03;;
18322;SDS011;9287;49.456;11.064;2024-02-15T05:52:59;3.40;;;2.97;;
18322;SDS011;9287;49.456;11.064;2024-02-15T05:55:28;6.27;;;3.90;;
18322;SDS011;9287;49.456;11.064;2024-02-15T05:57:57;3.83;;;2.97;;
18322;SDS011;9287;49.456;11.064;2024-02-15T06:00:25;4.43;;;3.30;;
18322;SDS011;9287;49.456;11.064;2024-02-15T06:02:53;4.47;;;3.13;;
18322;SDS011;9287;49.456;11.064;2024-02-15T06:05:22;3.90;;;3.60;;
18322;SDS011;9287;49.456;11.064;2024-02-15T06:07:50;3.90;;;2.93;;
18322;SDS011;9287;49.456;11.064;2024-02-15T06:10:20;4.23;;;3.27;;
18322;SDS011;9287;49.456;11.064;2024-02-15T06:12:47;4.30;;;3.70;;
18322;SDS011;9287;49.456;11.064;2024-02-15T06:15:15;4.73;;;3.27;;
18322;SDS011;9287;49.456;11.064;2024-02-15T06:17:44;6.00;;;3.70;;
18322;SDS011;9287;49.456;11.064;2024-02-15T06:20:13;5.93;;;4.40;;
18322;SDS011;9287;49.456;11.064;2024-02-15T06:22:44;4.20;;;3.73;;
18322;SDS011;9287;49.456;11.064;2024-02-15T06:25:12;4.23;;;3.80;;
18322;SDS011;9287;49.456;11.064;2024-02-15T06:27:48;5.80;;;3.73;;
18322;SDS011;9287;49.456;11.064;2024-02-15T06:30:17;3.90;;;3.00;;
18322;SDS011;9287;49.456;11.064;2024-02-15T06:33:03;3.67;;;3.03;;
18322;SDS011;9287;49.456;11.064;2024-02-15T06:35:49;4.33;;;3.30;;
18322;SDS011;9287;49.456;11.064;2024-02-15T06:38:34;3.23;;;2.93;;
18322;SDS011;9287;49.456;11.064;2024-02-15T06:41:19;2.93;;;2.73;;
18322;SDS011;9287;49.456;11.064;2024-02-15T06:43:51;4.27;;;2.63;;
18322;SDS011;9287;49.456;11.064;2024-02-15T06:46:19;3.50;;;3.30;;
18322;SDS011;9287;49.456;11.064;2024-02-15T06:48:47;2.90;;;2.60;;
18322;SDS011;9287;49.456;11.064;2024-02-15T06:51:15;4.40;;;2.73;;
18322;SDS011;9287;49.456;11.064;2024-02-15T06:53:43;3.60;;;3.23;;
18322;SDS011;9287;49.456;11.064;2024-02-15T06:56:11;3.50;;;2.53;;
18322;SDS011;9287;49.456;11.064;2024-02-15T06:58:40;2.97;;;2.63;;
18322;SDS011;9287;49.456;11.064;2024-02-15T07:01:09;3.10;;;2.67;;
18322;SDS011;9287;49.456;11.064;2024-02-15T07:03:40;4.27;;;2.73;;
18322;SDS011;9287;49.456;11.064;2024-02-15T07:06:08;3.67;;;3.17;;
18322;SDS011;9287;49.456;11.064;2024-02-15T07:08:36;3.00;;;2.73;;
18322;SDS011;9287;49.456;11.064;2024-02-15T07:11:03;3.17;;;2.50;;
18322;SDS011;9287;49.456;11.064;2024-02-15T07:13:33;3.30;;;3.00;;
18322;SDS011;9287;49.456;11.064;2024-02-15T07:16:00;3.53;;;3.23;;
18322;SDS011;9287;49.456;11.064;2024-02-15T07:18:31;3.60;;;2.97;;
18322;SDS011;9287;49.456;11.064;2024-02-15T07:20:59;2.73;;;2.53;;
18322;SDS011;9287;49.456;11.064;2024-02-15T07:23:27;3.13;;;2.60;;
18322;SDS011;9287;49.456;11.064;2024-02-15T07:25:55;3.77;;;2.57;;
18322;SDS011;9287;49.456;11.064;2024-02-15T07:28:23;3.17;;;2.87;;
18322;SDS011;9287;49.456;11.064;2024-02-15T07:30:52;3.73;;;2.23;;
18322;SDS011;9287;49.456;11.064;2024-02-15T07:33:21;3.53;;;3.13;;
18322;SDS011;9287;49.456;11.064;2024-02-15T07:35:51;2.53;;;2.30;;
18322;SDS011;9287;49.456;11.064;2024-02-15T07:38:19;3.60;;;2.73;;
18322;SDS011;9287;49.456;11.064;2024-02-15T07:40:49;5.57;;;3.03;;
18322;SDS011;9287;49.456;11.064;2024-02-15T07:43:17;4.57;;;2.90;;
18322;SDS011;9287;49.456;11.064;2024-02-15T07:45:45;2.53;;;2.33;;
18322;SDS011;9287;49.456;11.064;2024-02-15T07:48:15;4.77;;;2.70;;
18322;SDS011;9287;49.456;11.064;2024-02-15T07:50:43;7.40;;;2.40;;
18322;SDS011;9287;49.456;11.064;2024-02-15T07:53:13;4.97;;;2.10;;
18322;SDS011;9287;49.456;11.064;2024-02-15T07:55:41;3.93;;;2.47;;
18322;SDS011;9287;49.456;11.064;2024-02-15T07:58:10;3.93;;;2.57;;
18322;SDS011;9287;49.456;11.064;2024-02-15T08:00:39;3.93;;;2.70;;
18322;SDS011;9287;49.456;11.064;2024-02-15T08:03:07;4.63;;;2.80;;
18322;SDS011;9287;49.456;11.064;2024-02-15T08:05:35;2.53;;;2.23;;
18322;SDS011;9287;49.456;11.064;2024-02-15T08:08:04;4.93;;;2.50;;
18322;SDS011;9287;49.456;11.064;2024-02-15T08:10:34;3.03;;;2.20;;
18322;SDS011;9287;49.456;11.064;2024-02-15T08:13:01;2.37;;;2.00;;
18322;SDS011;9287;49.456;11.064;2024-02-15T08:15:29;6.90;;;2.80;;
18322;SDS011;9287;49.456;11.064;2024-02-15T08:17:58;4.20;;;2.50;;
18322;SDS011;9287;49.456;11.064;2024-02-15T08:20:31;3.80;;;2.70;;
18322;SDS011;9287;49.456;11.064;2024-02-15T08:23:00;3.77;;;2.40;;
18322;SDS011;9287;49.456;11.064;2024-02-15T08:25:28;3.97;;;2.00;;
18322;SDS011;9287;49.456;11.064;2024-02-15T08:27:58;2.80;;;2.30;;
18322;SDS011;9287;49.456;11.064;2024-02-15T08:30:31;2.87;;;2.10;;
18322;SDS011;9287;49.456;11.064;2024-02-15T08:32:59;5.43;;;2.30;;
18322;SDS011;9287;49.456;11.064;2024-02-15T08:35:27;3.77;;;2.67;;
18322;SDS011;9287;49.456;11.064;2024-02-15T08:37:55;3.97;;;2.20;;
18322;SDS011;9287;49.456;11.064;2024-02-15T08:40:23;2.10;;;1.97;;
18322;SDS011;9287;49.456;11.064;2024-02-15T08:42:52;2.97;;;1.90;;
18322;SDS011;9287;49.456;11.064;2024-02-15T08:45:22;2.40;;;2.20;;
18322;SDS011;9287;49.456;11.064;2024-02-15T08:47:50;1.87;;;1.53;;
18322;SDS011;9287;49.456;11.064;2024-02-15T08:50:20;2.77;;;2.13;;
18322;SDS011;9287;49.456;11.064;2024-02-15T08:52:50;4.60;;;2.10;;
18322;SDS011;9287;49.456;11.064;2024-02-15T08:55:18;2.73;;;2.17;;
18322;SDS011;9287;49.456;11.064;2024-02-15T08:57:50;3.20;;;2.00;;
18322;SDS011;9287;49.456;11.064;2024-02-15T09:00:18;5.50;;;1.97;;
18322;SDS011;9287;49.456;11.064;2024-02-15T09:02:48;4.10;;;2.10;;
18322;SDS011;9287;49.456;11.064;2024-02-15T09:05:17;2.23;;;2.00;;
18322;SDS011;9287;49.456;11.064;2024-02-15T09:07:48;3.93;;;1.97;;
18322;SDS011;9287;49.456;11.064;2024-02-15T09:10:17;2.90;;;2.03;;
18322;SDS011;9287;49.456;11.064;2024-02-15T09:12:45;1.93;;;1.73;;
18322;SDS011;9287;49.456;11.064;2024-02-15T09:15:15;3.40;;;2.07;;
18322;SDS011;9287;49.456;11.064;2024-02-15T09:17:44;2.83;;;1.70;;
18322;SDS011;9287;49.456;11.064;2024-02-15T09:20:16;2.50;;;1.93;;
18322;SDS011;9287;49.456;11.064;2024-02-15T09:22:47;3.37;;;1.90;;
18322;SDS011;9287;49.456;11.064;2024-02-15T09:25:15;2.37;;;1.73;;
18322;SDS011;9287;49.456;11.064;2024-02-15T09:27:43;6.23;;;2.13;;
18322;SDS011;9287;49.456;11.064;2024-02-15T09:30:12;3.43;;;1.70;;
18322;SDS011;9287;49.456;11.064;2024-02-15T09:32:41;2.93;;;2.00;;
18322;SDS011;9287;49.456;11.064;2024-02-15T09:35:11;2.63;;;1.40;;
18322;SDS011;9287;49.456;11.064;2024-02-15T09:37:44;2.77;;;1.40;;
18322;SDS011;9287;49.456;11.064;2024-02-15T09:40:15;2.60;;;1.37;;
18322;SDS011;9287;49.456;11.064;2024-02-15T09:42:44;2.83;;;1.57;;
18322;SDS011;9287;49.456;11.064;2024-02-15T09:45:13;2.60;;;1.70;;
18322;SDS011;9287;49.456;11.064;2024-02-15T09:47:43;3.07;;;1.47;;
18322;SDS011;9287;49.456;11.064;2024-02-15T09:50:12;2.07;;;1.80;;
18322;SDS011;9287;49.456;11.064;2024-02-15T09:52:45;1.97;;;1.60;;
18322;SDS011;9287;49.456;11.064;2024-02-15T09:55:15;2.23;;;1.63;;
18322;SDS011;9287;49.456;11.064;2024-02-15T09:57:44;1.63;;;1.53;;
18322;SDS011;9287;49.456;11.064;2024-02-15T10:00:13;1.60;;;1.30;;
18322;SDS011;9287;49.456;11.064;2024-02-15T10:02:44;3.43;;;1.87;;
18322;SDS011;9287;49.456;11.064;2024-02-15T10:05:17;2.93;;;1.60;;
18322;SDS011;9287;49.456;11.064;2024-02-15T10:07:46;2.80;;;1.47;;
18322;SDS011;9287;49.456;11.064;2024-02-15T10:10:15;2.33;;;1.50;;
18322;SDS011;9287;49.456;11.064;2024-02-15T10:12:45;3.10;;;2.00;;
18322;SDS011;9287;49.456;11.064;2024-02-15T10:15:26;3.03;;;1.60;;
18322;SDS011;9287;49.456;11.064;2024-02-15T10:17:59;3.63;;;1.90;;
18322;SDS011;9287;49.456;11.064;2024-02-15T10:20:28;4.77;;;1.80;;
18322;SDS011;9287;49.456;11.064;2024-02-15T10:23:08;5.63;;;1.60;;
18322;SDS011;9287;49.456;11.064;2024-02-15T10:25:37;2.60;;;1.70;;
18322;SDS011;9287;49.456;11.064;2024-02-15T10:28:06;4.87;;;1.80;;
18322;SDS011;9287;49.456;11.064;2024-02-15T10:30:36;2.87;;;1.70;;
18322;SDS011;9287;49.456;11.064;2024-02-15T10:33:05;2.37;;;1.40;;
18322;SDS011;9287;49.456;11.064;2024-02-15T10:35:34;3.20;;;1.70;;
18322;SDS011;9287;49.456;11.064;2024-02-15T10:38:08;2.77;;;1.57;;
18322;SDS011;9287;49.456;11.064;2024-02-15T10:40:37;3.30;;;1.83;;
18322;SDS011;9287;49.456;11.064;2024-02-15T10:43:08;3.57;;;1.30;;
18322;SDS011;9287;49.456;11.064;2024-02-15T10:45:39;3.70;;;1.60;;
18322;SDS011;9287;49.456;11.064;2024-02-15T10:48:08;2.80;;;1.70;;
18322;SDS011;9287;49.456;11.064;2024-02-15T10:50:39;2.43;;;1.47;;
18322;SDS011;9287;49.456;11.064;2024-02-15T10:53:11;2.77;;;1.20;;
18322;SDS011;9287;49.456;11.064;2024-02-15T10:55:52;2.67;;;1.67;;
18322;SDS011;9287;49.456;11.064;2024-02-15T10:58:25;2.90;;;1.20;;
18322;SDS011;9287;49.456;11.064;2024-02-15T11:00:57;2.03;;;1.23;;
18322;SDS011;9287;49.456;11.064;2024-02-15T11:03:29;3.20;;;1.23;;
18322;SDS011;9287;49.456;11.064;2024-02-15T11:06:04;3.37;;;1.13;;
18322;SDS011;9287;49.456;11.064;2024-02-15T11:08:35;3.73;;;1.07;;
18322;SDS011;9287;49.456;11.064;2024-02-15T11:11:04;1.47;;;0.87;;
18322;SDS011;9287;49.456;11.064;2024-02-15T11:13:33;2.00;;;1.00;;
18322;SDS011;9287;49.456;11.064;2024-02-15T11:16:01;1.93;;;1.10;;
18322;SDS011;9287;49.456;11.064;2024-02-15T11:18:41;1.60;;;0.97;;
18322;SDS011;9287;49.456;11.064;2024-02-15T11:21:11;1.50;;;1.10;;
18322;SDS011;9287;49.456;11.064;2024-02-15T11:23:41;1.73;;;1.10;;
18322;SDS011;9287;49.456;11.064;2024-02-15T11:26:42;1.40;;;0.82;;
18322;SDS011;9287;49.456;11.064;2024-02-15T11:32:34;3.08;;;1.02;;
18322;SDS011;9287;49.456;11.064;2024-02-15T11:35:03;3.05;;;0.90;;
18322;SDS011;9287;49.456;11.064;2024-02-15T11:37:50;3.28;;;1.00;;
18322;SDS011;9287;49.456;11.064;2024-02-15T11:43:50;1.42;;;0.90;;
18322;SDS011;9287;49.456;11.064;2024-02-15T11:46:23;3.03;;;0.90;;
18322;SDS011;9287;49.456;11.064;2024-02-15T11:48:54;2.45;;;1.00;;
18322;SDS011;9287;49.456;11.064;2024-02-15T11:51:29;2.85;;;0.80;;
18322;SDS011;9287;49.456;11.064;2024-02-15T11:54:03;2.85;;;1.00;;
18322;SDS011;9287;49.456;11.064;2024-02-15T11:59:40;1.70;;;0.90;;
18322;SDS011;9287;49.456;11.064;2024-02-15T12:02:39;0.90;;;0.70;;
18322;SDS011;9287;49.456;11.064;2024-02-15T12:05:24;1.33;;;0.73;;
18322;SDS011;9287;49.456;11.064;2024-02-15T12:08:10;1.02;;;0.77;;
18322;SDS011;9287;49.456;11.064;2024-02-15T12:10:58;1.40;;;0.80;;
18322;SDS011;9287;49.456;11.064;2024-02-15T12:13:44;2.42;;;0.85;;
18322;SDS011;9287;49.456;11.064;2024-02-15T12:16:35;1.65;;;0.80;;
18322;SDS011;9287;49.456;11.064;2024-02-15T12:19:20;7.60;;;1.13;;
18322;SDS011;9287;49.456;11.064;2024-02-15T12:21:48;2.17;;;0.70;;
18322;SDS011;9287;49.456;11.064;2024-02-15T12:24:16;3.53;;;0.68;;
18322;SDS011;9287;49.456;11.064;2024-02-15T12:26:47;1.98;;;0.70;;
18322;SDS011;9287;49.456;11.064;2024-02-15T12:29:17;1.25;;;0.60;;
18322;SDS011;9287;49.456;11.064;2024-02-15T12:31:46;1.58;;;0.50;;
18322;SDS011;9287;49.456;11.064;2024-02-15T12:34:16;2.28;;;0.63;;
18322;SDS011;9287;49.456;11.064;2024-02-15T12:36:48;1.55;;;0.70;;
18322;SDS011;9287;49.456;11.064;2024-02-15T12:39:20;0.73;;;0.35;;
18322;SDS011;9287;49.456;11.064;2024-02-15T12:41:54;1.05;;;0.30;;
18322;SDS011;9287;49.456;11.064;2024-02-15T12:44:25;0.80;;;0.40;;
18322;SDS011;9287;49.456;11.064;2024-02-15T12:46:56;0.63;;;0.40;;
18322;SDS011;9287;49.456;11.064;2024-02-15T12:49:29;0.65;;;0.30;;
18322;SDS011;9287;49.456;11.064;2024-02-15T12:55:08;0.95;;;0.40;;
18322;SDS011;9287;49.456;11.064;2024-02-15T12:57:38;0.70;;;0.60;;
18322;SDS011;9287;49.456;11.064;2024-02-15T13:00:09;8.95;;;0.60;;
18322;SDS011;9287;49.456;11.064;2024-02-15T13:02:40;1.15;;;0.60;;
18322;SDS011;9287;49.456;11.064;2024-02-15T13:05:12;0.85;;;0.52;;
18322;SDS011;9287;49.456;11.064;2024-02-15T13:07:40;2.45;;;0.50;;
18322;SDS011;9287;49.456;11.064;2024-02-15T13:10:08;2.40;;;0.50;;
18322;SDS011;9287;49.456;11.064;2024-02-15T13:12:37;1.05;;;0.50;;
18322;SDS011;9287;49.456;11.064;2024-02-15T13:15:05;1.70;;;0.47;;
18322;SDS011;9287;49.456;11.064;2024-02-15T13:17:39;0.98;;;0.50;;
18322;SDS011;9287;49.456;11.064;2024-02-15T13:20:07;3.13;;;0.77;;
18322;SDS011;9287;49.456;11.064;2024-02-15T13:22:39;3.55;;;0.50;;
18322;SDS011;9287;49.456;11.064;2024-02-15T13:25:07;1.23;;;0.50;;
18322;SDS011;9287;49.456;11.064;2024-02-15T13:27:36;1.88;;;0.50;;
18322;SDS011;9287;49.456;11.064;2024-02-15T13:30:05;1.55;;;0.50;;
18322;SDS011;9287;49.456;11.064;2024-02-15T13:32:35;1.60;;;0.47;;
18322;SDS011;9287;49.456;11.064;2024-02-15T13:35:06;0.90;;;0.40;;
18322;SDS011;9287;49.456;11.064;2024-02-15T13:37:40;0.88;;;0.45;;
18322;SDS011;9287;49.456;11.064;2024-02-15T13:40:10;1.77;;;0.60;;
18322;SDS011;9287;49.456;11.064;2024-02-15T13:42:42;1.48;;;0.35;;
18322;SDS011;9287;49.456;11.064;2024-02-15T13:45:15;2.28;;;0.55;;
18322;SDS011;9287;49.456;11.064;2024-02-15T13:47:44;1.52;;;0.57;;
18322;SDS011;9287;49.456;11.064;2024-02-15T13:50:15;0.65;;;0.50;;
18322;SDS011;9287;49.456;11.064;2024-02-15T13:52:43;0.90;;;0.55;;
18322;SDS011;9287;49.456;11.064;2024-02-15T13:55:13;2.72;;;0.60;;
18322;SDS011;9287;49.456;11.064;2024-02-15T13:57:42;5.35;;;0.80;;
18322;SDS011;9287;49.456;11.064;2024-02-15T14:00:13;3.77;;;0.67;;
18322;SDS011;9287;49.456;11.064;2024-02-15T14:02:48;2.00;;;0.65;;
18322;SDS011;9287;49.456;11.064;2024-02-15T14:05:18;1.73;;;0.60;;
18322;SDS011;9287;49.456;11.064;2024-02-15T14:07:50;2.28;;;0.60;;
18322;SDS011;9287;49.456;11.064;2024-02-15T14:10:20;1.25;;;0.70;;
18322;SDS011;9287;49.456;11.064;2024-02-15T14:12:48;1.43;;;0.60;;
18322;SDS011;9287;49.456;11.064;2024-02-15T14:15:16;1.88;;;0.60;;
18322;SDS011;9287;49.456;11.064;2024-02-15T14:17:44;2.13;;;0.60;;
18322;SDS011;9287;49.456;11.064;2024-02-15T14:20:13;0.73;;;0.50;;
18322;SDS011;9287;49.456;11.064;2024-02-15T14:22:43;1.07;;;0.60;;
18322;SDS011;9287;49.456;11.064;2024-02-15T14:25:11;1.70;;;0.50;;
18322;SDS011;9287;49.456;11.064;2024-02-15T14:27:39;0.73;;;0.50;;
18322;SDS011;9287;49.456;11.064;2024-02-15T14:30:09;1.00;;;0.63;;
18322;SDS011;9287;49.456;11.064;2024-02-15T14:32:54;2.43;;;0.50;;
18322;SDS011;9287;49.456;11.064;2024-02-15T14:35:31;0.90;;;0.50;;
18322;SDS011;9287;49.456;11.064;2024-02-15T14:38:03;1.20;;;0.50;;
18322;SDS011;9287;49.456;11.064;2024-02-15T14:40:33;1.63;;;0.60;;
18322;SDS011;9287;49.456;11.064;2024-02-15T14:43:04;2.40;;;0.70;;
18322;SDS011;9287;49.456;11.064;2024-02-15T14:45:32;1.40;;;0.60;;
18322;SDS011;9287;49.456;11.064;2024-02-15T14:48:01;1.73;;;0.50;;
18322;SDS011;9287;49.456;11.064;2024-02-15T14:50:30;1.70;;;0.47;;
18322;SDS011;9287;49.456;11.064;2024-02-15T14:52:58;0.97;;;0.40;;
18322;SDS011;9287;49.456;11.064;2024-02-15T14:55:27;1.83;;;0.40;;
18322;SDS011;9287;49.456;11.064;2024-02-15T14:57:57;1.57;;;0.60;;
18322;SDS011;9287;49.456;11.064;2024-02-15T15:00:30;0.73;;;0.40;;
18322;SDS011;9287;49.456;11.064;2024-02-15T15:03:00;2.10;;;0.50;;
18322;SDS011;9287;49.456;11.064;2024-02-15T15:05:29;0.87;;;0.47;;
18322;SDS011;9287;49.456;11.064;2024-02-15T15:08:15;0.90;;;0.40;;
18322;SDS011;9287;49.456;11.064;2024-02-15T15:11:03;1.87;;;0.33;;
18322;SDS011;9287;49.456;11.064;2024-02-15T15:13:48;0.60;;;0.50;;
18322;SDS011;9287;49.456;11.064;2024-02-15T15:16:16;1.90;;;0.50;;
18322;SDS011;9287;49.456;11.064;2024-02-15T15:18:47;1.60;;;0.50;;
18322;SDS011;9287;49.456;11.064;2024-02-15T15:21:15;2.10;;;0.40;;